createdAt,value
2023-05-24T00:01:57.026Z,7.06
2023-05-24T00:04:25.590Z,6.99
2023-05-24T00:06:55.113Z,6.89
2023-05-24T00:09:21.966Z,6.85
2023-05-24T00:11:48.714Z,6.85
2023-05-24T00:14:15.634Z,6.80
2023-05-24T00:16:42.350Z,6.75
2023-05-24T00:19:11.386Z,6.69
2023-05-24T00:21:38.545Z,6.63
2023-05-24T00:24:05.301Z,6.69
2023-05-24T00:26:31.851Z,6.65
2023-05-24T00:28:58.415Z,6.61
2023-05-24T00:31:25.041Z,6.60
2023-05-24T00:33:51.662Z,6.54
2023-05-24T00:36:18.315Z,6.54
2023-05-24T00:38:44.920Z,6.51
2023-05-24T00:41:11.650Z,6.52
2023-05-24T00:43:38.253Z,6.49
2023-05-24T00:46:16.979Z,6.50
2023-05-24T00:48:44.808Z,6.44
2023-05-24T00:51:13.141Z,6.44
2023-05-24T00:53:41.360Z,6.37
2023-05-24T00:56:08.702Z,6.37
2023-05-24T00:58:35.567Z,6.31
2023-05-24T01:01:03.603Z,6.28
2023-05-24T01:03:30.442Z,6.22
2023-05-24T01:05:58.560Z,6.20
2023-05-24T01:08:40.504Z,6.19
2023-05-24T01:11:17.876Z,6.21
2023-05-24T01:13:55.053Z,6.24
2023-05-24T01:16:26.130Z,6.21
2023-05-24T01:19:13.021Z,6.19
2023-05-24T01:21:59.114Z,6.13
2023-05-24T01:24:42.468Z,6.15
2023-05-24T01:27:15.301Z,6.21
2023-05-24T01:29:42.668Z,6.29
2023-05-24T01:32:10.026Z,6.27
2023-05-24T01:34:36.608Z,6.25
2023-05-24T01:37:03.093Z,6.26
2023-05-24T01:39:30.657Z,6.19
2023-05-24T01:42:06.203Z,6.13
2023-05-24T01:45:00.465Z,6.10
2023-05-24T01:47:42.406Z,6.11
2023-05-24T01:50:23.839Z,6.10
2023-05-24T01:52:53.492Z,6.11
2023-05-24T01:55:20.961Z,6.19
2023-05-24T01:57:50.657Z,6.23
2023-05-24T02:00:19.289Z,6.34
2023-05-24T02:02:46.710Z,6.46
2023-05-24T02:05:13.534Z,6.49
2023-05-24T02:07:41.487Z,6.58
2023-05-24T02:10:08.474Z,6.65
2023-05-24T02:12:35.103Z,6.67
2023-05-24T02:15:01.696Z,6.59
2023-05-24T02:17:28.303Z,6.61
2023-05-24T02:19:54.940Z,6.58
2023-05-24T02:22:22.446Z,6.61
2023-05-24T02:24:49.131Z,6.68
2023-05-24T02:27:15.684Z,6.76
2023-05-24T02:29:42.273Z,6.80
2023-05-24T02:32:09.252Z,6.82
2023-05-24T02:34:35.957Z,6.81
2023-05-24T02:37:02.707Z,6.78
2023-05-24T02:39:29.227Z,6.78
2023-05-24T02:41:55.796Z,6.77
2023-05-24T02:44:22.371Z,6.76
2023-05-24T02:55:18.625Z,6.70
2023-05-24T03:24:16.098Z,6.40
2023-05-24T03:26:45.148Z,6.39
2023-05-24T03:29:11.926Z,6.34
2023-05-24T03:31:43.524Z,6.38
2023-05-24T03:34:11.662Z,6.36
2023-05-24T03:36:39.701Z,6.34
2023-05-24T03:39:08.677Z,6.37
2023-05-24T03:41:40.298Z,6.34
2023-05-24T03:44:11.750Z,6.38
2023-05-24T03:54:24.856Z,6.25
2023-05-24T03:57:19.370Z,6.27
2023-05-24T04:11:53.497Z,6.17
2023-05-24T05:17:32.685Z,9.75
2023-05-24T05:20:08.507Z,9.78
2023-05-24T05:22:46.185Z,9.80
2023-05-24T05:25:21.065Z,9.85
2023-05-24T05:28:23.641Z,9.92
2023-05-24T05:31:27.005Z,9.99
2023-05-24T05:34:14.020Z,10.10
2023-05-24T05:37:24.900Z,10.18
2023-05-24T06:44:51.093Z,11.44
2023-05-24T07:18:30.789Z,11.92
2023-05-24T07:20:57.808Z,11.92
2023-05-24T07:23:26.764Z,11.84
2023-05-24T07:25:53.547Z,11.84
2023-05-24T07:28:22.237Z,11.80
2023-05-24T07:30:52.162Z,11.77
2023-05-24T07:33:23.965Z,11.75
2023-05-24T07:35:55.328Z,11.82
2023-05-24T07:38:24.143Z,11.82
2023-05-24T07:42:31.367Z,11.98
2023-05-24T07:44:50.693Z,12.28
2023-05-24T07:55:30.774Z,12.46
2023-05-24T07:58:37.818Z,12.68
2023-05-24T09:03:03.828Z,13.73
2023-05-24T09:05:41.535Z,13.95
2023-05-24T09:10:54.972Z,14.02
2023-05-24T09:11:40.226Z,13.88
2023-05-24T09:14:35.831Z,13.91
2023-05-24T09:17:13.039Z,14.19
2023-05-24T09:20:01.503Z,14.07
2023-05-24T09:26:14.163Z,13.60
2023-05-24T09:31:55.005Z,13.74
2023-05-24T09:34:38.531Z,14.39
2023-05-24T09:37:27.458Z,14.23
2023-05-24T09:40:28.800Z,14.12
2023-05-24T09:43:13.176Z,13.95
2023-05-24T09:49:41.493Z,13.86
2023-05-24T09:52:18.782Z,13.71
2023-05-24T09:54:48.267Z,13.69
2023-05-24T09:57:18.316Z,13.72
2023-05-24T09:59:47.107Z,13.72
2023-05-24T10:02:38.106Z,13.77
2023-05-24T10:08:14.142Z,13.87
2023-05-24T10:10:58.647Z,13.83
2023-05-24T10:13:50.799Z,13.78
2023-05-24T10:17:32.027Z,13.78
2023-05-24T10:19:52.665Z,13.75
2023-05-24T10:25:18.738Z,13.77
2023-05-24T10:26:19.145Z,13.93
2023-05-24T10:28:57.759Z,14.10
2023-05-24T10:31:58.883Z,14.14
2023-05-24T10:34:40.595Z,14.17
2023-05-24T10:37:17.511Z,14.26
2023-05-24T10:39:57.177Z,14.27
2023-05-24T10:42:39.940Z,14.37
2023-05-24T10:45:47.864Z,14.49
2023-05-24T10:48:54.631Z,14.47
2023-05-24T10:52:59.680Z,14.38
2023-05-24T10:55:28.736Z,14.39
2023-05-24T10:58:45.465Z,14.70
2023-05-24T11:02:03.619Z,14.66
2023-05-24T11:05:14.285Z,14.62
2023-05-24T11:11:42.380Z,14.58
2023-05-24T11:14:33.154Z,14.80
2023-05-24T11:17:17.354Z,14.95
2023-05-24T11:20:27.018Z,14.97
2023-05-24T11:23:20.481Z,14.84
2023-05-24T11:25:49.429Z,14.89
2023-05-24T11:28:31.875Z,14.81
2023-05-24T11:31:31.011Z,14.81
2023-05-24T11:34:31.124Z,14.88
2023-05-24T11:37:38.444Z,15.09
2023-05-24T11:40:27.428Z,15.13
2023-05-24T11:42:58.708Z,14.94
2023-05-24T11:45:47.189Z,14.85
2023-05-24T11:48:34.490Z,14.99
2023-05-24T11:52:06.536Z,15.02
2023-05-24T11:59:09.024Z,15.06
2023-05-24T12:08:41.755Z,15.22
2023-05-24T12:11:34.022Z,15.40
2023-05-24T12:17:13.888Z,15.46
2023-05-24T12:20:11.706Z,15.41
2023-05-24T12:22:56.420Z,15.42
2023-05-24T12:25:29.896Z,15.39
2023-05-24T12:25:58.095Z,15.39
2023-05-24T12:32:06.284Z,15.52
2023-05-24T12:34:53.206Z,15.66
2023-05-24T12:37:34.382Z,15.61
2023-05-24T12:40:08.091Z,15.47
2023-05-24T12:40:54.360Z,15.48
2023-05-24T12:42:36.612Z,15.40
2023-05-24T12:48:46.841Z,15.66
2023-05-24T12:52:15.438Z,15.90
2023-05-24T12:55:25.423Z,15.72
2023-05-24T12:58:35.359Z,15.61
2023-05-24T13:01:02.500Z,15.66
2023-05-24T13:11:30.648Z,15.83
2023-05-24T13:14:24.473Z,15.87
2023-05-24T13:17:21.324Z,15.84
2023-05-24T13:20:33.950Z,15.73
2023-05-24T13:23:25.654Z,15.60
2023-05-24T13:26:40.082Z,15.67
2023-05-24T13:30:19.915Z,15.64
2023-05-24T13:33:03.617Z,15.43
2023-05-24T13:35:50.249Z,15.40
2023-05-24T13:39:21.612Z,15.33
2023-05-24T13:44:46.546Z,15.37
2023-05-24T13:47:38.498Z,15.36
2023-05-24T13:50:28.175Z,15.30
2023-05-24T13:53:26.382Z,15.32
2023-05-24T13:56:28.464Z,15.40
2023-05-24T14:02:03.222Z,15.51
2023-05-24T14:04:46.161Z,15.49
2023-05-24T14:07:53.591Z,15.57
2023-05-24T14:28:51.368Z,15.62
2023-05-24T14:32:08.854Z,15.60
2023-05-24T14:35:13.552Z,15.57
2023-05-24T14:38:00.794Z,15.48
2023-05-24T14:38:03.173Z,15.59
2023-05-24T14:40:54.617Z,15.45
2023-05-24T14:43:38.111Z,15.46
2023-05-24T14:46:39.476Z,15.42
2023-05-24T14:49:26.983Z,15.35
2023-05-24T14:52:16.174Z,15.06
2023-05-24T14:58:01.990Z,14.96
2023-05-24T14:58:33.647Z,15.01
2023-05-24T15:03:23.995Z,15.03
2023-05-24T15:06:09.583Z,15.29
2023-05-24T15:08:42.412Z,15.31
2023-05-24T15:11:16.324Z,15.41
2023-05-24T15:17:23.955Z,15.67
2023-05-24T15:20:43.740Z,15.58
2023-05-24T15:23:38.255Z,15.68
2023-05-24T15:26:04.930Z,15.83
2023-05-24T15:28:59.306Z,15.87
2023-05-24T15:30:14.768Z,15.58
2023-05-24T15:35:10.371Z,16.04
2023-05-24T15:37:54.240Z,16.18
2023-05-24T15:40:27.877Z,16.27
2023-05-24T15:48:37.160Z,16.20
2023-05-24T15:48:55.263Z,15.99
2023-05-24T15:52:03.476Z,15.89
2023-05-24T15:54:53.108Z,15.81
2023-05-24T15:57:35.341Z,15.75
2023-05-24T16:00:02.307Z,15.77
2023-05-24T16:02:38.188Z,15.90
2023-05-24T16:05:13.079Z,16.12
2023-05-24T16:07:44.684Z,16.22
2023-05-24T16:10:30.657Z,16.24
2023-05-24T16:13:27.052Z,16.14
2023-05-24T16:16:00.306Z,15.90
2023-05-24T16:18:31.698Z,15.74
2023-05-24T16:21:25.174Z,15.65
2023-05-24T16:24:22.105Z,15.49
2023-05-24T16:26:59.579Z,15.32
2023-05-24T16:32:19.304Z,14.99
2023-05-24T16:35:00.079Z,14.96
2023-05-24T16:35:06.624Z,15.10
2023-05-24T16:37:40.176Z,14.86
2023-05-24T16:40:10.832Z,14.89
2023-05-24T16:42:44.429Z,14.82
2023-05-24T16:45:30.482Z,14.81
2023-05-24T16:48:29.814Z,14.71
2023-05-24T16:51:01.724Z,14.61
2023-05-24T16:53:34.433Z,14.64
2023-05-24T16:56:15.556Z,14.66
2023-05-24T16:58:42.242Z,14.63
2023-05-24T17:01:16.575Z,14.60
2023-05-24T17:03:45.921Z,14.62
2023-05-24T17:06:13.094Z,14.65
2023-05-24T17:08:51.352Z,14.62
2023-05-24T17:11:19.950Z,14.62
2023-05-24T17:13:51.259Z,14.63
2023-05-24T17:16:19.476Z,14.59
2023-05-24T17:18:53.024Z,14.56
2023-05-24T17:21:22.171Z,14.52
2023-05-24T17:24:31.199Z,14.45
2023-05-24T17:27:01.108Z,14.44
2023-05-24T17:29:32.563Z,14.40
2023-05-24T17:32:08.422Z,14.41
2023-05-24T17:34:45.797Z,14.43
2023-05-24T17:37:33.847Z,14.37
2023-05-24T17:40:10.103Z,14.34
2023-05-24T17:42:41.862Z,14.28
2023-05-24T17:45:16.517Z,14.20
2023-05-24T17:47:55.023Z,14.17
2023-05-24T17:50:24.798Z,14.13
2023-05-24T17:55:51.116Z,14.09
2023-05-24T17:59:03.095Z,14.06
2023-05-24T18:01:38.249Z,14.02
2023-05-24T18:04:15.170Z,14.02
2023-05-24T18:07:17.939Z,13.97
2023-05-24T18:09:46.973Z,13.96
2023-05-24T18:12:15.424Z,13.96
2023-05-24T18:14:44.465Z,13.95
2023-05-24T18:17:23.996Z,13.92
2023-05-24T18:20:02.754Z,13.94
2023-05-24T18:22:29.561Z,13.95
2023-05-24T18:25:00.261Z,13.94
2023-05-24T18:27:43.026Z,13.91
2023-05-24T18:30:17.605Z,13.95
2023-05-24T18:33:03.387Z,13.95
2023-05-24T18:35:54.228Z,13.94
2023-05-24T18:38:29.881Z,13.88
2023-05-24T18:41:11.067Z,13.87
2023-05-24T18:44:14.433Z,13.89
2023-05-24T18:46:37.918Z,13.89
2023-05-24T18:49:06.892Z,13.92
2023-05-24T18:51:36.217Z,13.91
2023-05-24T18:54:21.215Z,13.91
2023-05-24T18:56:54.398Z,13.88
2023-05-24T18:59:24.716Z,13.84
2023-05-24T19:01:53.992Z,13.84
2023-05-24T19:04:20.806Z,13.79
2023-05-24T19:06:47.516Z,13.79
2023-05-24T19:09:14.248Z,13.73
2023-05-24T19:11:40.866Z,13.65
2023-05-24T19:14:07.620Z,13.58
2023-05-24T19:17:04.213Z,13.54
2023-05-24T19:19:32.871Z,13.47
2023-05-24T19:22:01.019Z,13.42
2023-05-24T19:24:34.780Z,13.45
2023-05-24T19:27:01.827Z,13.41
2023-05-24T19:29:41.680Z,13.43
2023-05-24T19:32:11.075Z,13.37
2023-05-24T19:34:43.356Z,13.37
2023-05-24T19:37:12.486Z,13.32
2023-05-24T19:39:40.602Z,13.31
2023-05-24T19:42:11.714Z,13.27
2023-05-24T19:44:43.205Z,13.28
2023-05-24T19:47:17.166Z,13.24
2023-05-24T19:49:44.181Z,13.19
2023-05-24T19:52:12.394Z,13.14
2023-05-24T19:54:45.000Z,13.06
2023-05-24T19:58:05.748Z,13.00
2023-05-24T20:00:49.554Z,12.94
2023-05-24T20:03:02.485Z,12.91
2023-05-24T20:05:40.272Z,12.88
2023-05-24T20:08:08.893Z,12.81
2023-05-24T20:10:36.647Z,12.79
2023-05-24T20:13:05.737Z,12.73
2023-05-24T20:15:32.555Z,12.71
2023-05-24T20:18:05.188Z,12.71
2023-05-24T20:20:39.825Z,12.69
2023-05-24T20:23:13.139Z,12.63
2023-05-24T20:25:44.772Z,12.61
2023-05-24T20:28:25.598Z,12.56
2023-05-24T20:31:10.137Z,12.54
2023-05-24T20:33:41.405Z,12.53
2023-05-24T20:36:24.610Z,12.47
2023-05-24T20:38:54.280Z,12.44
2023-05-24T20:41:25.761Z,12.39
2023-05-24T20:44:06.576Z,12.35
2023-05-24T20:46:43.084Z,12.38
2023-05-24T20:49:17.534Z,12.38
2023-05-24T20:51:49.291Z,12.38
2023-05-24T20:54:18.196Z,12.35
2023-05-24T20:56:49.318Z,12.30
2023-05-24T20:59:16.544Z,12.33
2023-05-24T21:01:46.290Z,12.30
2023-05-24T21:04:16.484Z,12.27
2023-05-24T21:06:43.217Z,12.26
2023-05-24T21:09:12.441Z,12.27
2023-05-24T21:11:47.519Z,12.27
2023-05-24T21:14:28.814Z,12.23
2023-05-24T21:17:03.417Z,12.19
2023-05-24T21:19:37.076Z,12.21
2023-05-24T21:22:06.570Z,12.15
2023-05-24T21:24:34.981Z,12.08
2023-05-24T21:27:06.314Z,12.05
2023-05-24T21:29:32.938Z,12.04
2023-05-24T21:31:59.736Z,12.06
2023-05-24T21:34:39.872Z,12.05
2023-05-24T21:37:12.287Z,12.03
2023-05-24T21:39:45.563Z,12.03
2023-05-24T21:42:17.145Z,11.99
2023-05-24T21:44:49.763Z,11.95
2023-05-24T21:47:28.209Z,11.92
2023-05-24T21:49:57.767Z,11.79
2023-05-24T21:52:29.508Z,11.82
2023-05-24T21:54:56.407Z,11.84
2023-05-24T21:57:31.757Z,11.84
2023-05-24T21:59:58.621Z,11.81
2023-05-24T22:02:34.557Z,11.82
2023-05-24T22:05:06.935Z,11.80
2023-05-24T22:07:55.394Z,11.79
2023-05-24T22:10:29.681Z,11.73
2023-05-24T22:13:07.921Z,11.66
2023-05-24T22:15:39.025Z,11.71
2023-05-24T22:18:15.316Z,11.65
2023-05-24T22:21:03.637Z,11.64
2023-05-24T22:23:36.774Z,11.58
2023-05-24T22:26:12.436Z,11.60
2023-05-24T22:28:58.147Z,11.52
2023-05-24T22:31:26.768Z,11.43
2023-05-24T22:34:30.452Z,11.47
2023-05-24T22:37:28.296Z,11.48
2023-05-24T22:39:55.647Z,11.50
2023-05-24T22:42:24.632Z,11.32
2023-05-24T22:45:14.388Z,11.20
2023-05-24T22:47:41.180Z,11.12
2023-05-24T22:50:18.398Z,10.93
2023-05-24T22:52:49.225Z,10.74
2023-05-24T22:55:19.190Z,10.83
2023-05-24T22:58:04.069Z,10.94
2023-05-24T23:00:33.698Z,10.99
2023-05-24T23:03:06.397Z,11.02
2023-05-24T23:05:37.619Z,10.99
2023-05-24T23:08:09.343Z,10.91
2023-05-24T23:10:45.919Z,10.86
2023-05-24T23:13:31.815Z,10.74
2023-05-24T23:16:09.343Z,10.54
2023-05-24T23:18:38.309Z,10.56
2023-05-24T23:21:07.354Z,10.61
2023-05-24T23:23:45.660Z,10.58
2023-05-24T23:26:14.694Z,10.55
2023-05-24T23:28:44.132Z,10.45
2023-05-24T23:31:11.285Z,10.35
2023-05-24T23:33:40.518Z,10.36
2023-05-24T23:36:19.262Z,10.48
2023-05-24T23:38:46.355Z,10.53
2023-05-24T23:41:17.867Z,10.56
2023-05-24T23:43:44.668Z,10.60
2023-05-24T23:46:18.804Z,10.59
2023-05-24T23:48:56.688Z,10.62
2023-05-24T23:51:30.003Z,10.64
2023-05-24T23:54:02.539Z,10.60
2023-05-24T23:56:35.202Z,10.43
2023-05-24T23:59:17.173Z,10.35
